Time;durP1;ratioP1;P1;durP2;ratioP2;P2;SDS_P1;SDS_P2;PMS_P1;PMS_P2;Temp;Humidity;BMP_temperature;BMP_pressure;BME280_temperature;BME280_humidity;BME280_pressure;Samples;Min_cycle;Max_cycle;Signal;HPM_P1;HPM_P2
2023/11/07 00:01:27;;;;;;;2.85;1.85;;;;;;;8.03;83.84;98000.91;5076929;28;20503;-81
2023/11/07 00:03:53;;;;;;;2.50;1.92;;;;;;;8.06;84.04;97991.63;5084721;28;20032;-81
2023/11/07 00:06:19;;;;;;;5.50;2.00;;;;;;;8.01;84.10;98004.84;5090141;28;20012;-81
2023/11/07 00:08:45;;;;;;;6.32;2.35;;;;;;;8.01;84.35;97991.56;5089494;28;20522;-81
2023/11/07 00:11:11;;;;;;;3.78;2.10;;;;;;;8.10;84.00;98000.69;5064870;28;20024;-81
2023/11/07 00:13:36;;;;;;;4.20;2.22;;;;;;;8.15;83.43;97996.19;5078626;28;20552;-81
2023/11/07 00:16:02;;;;;;;4.80;2.10;;;;;;;8.17;83.71;98014.53;5071492;28;20038;-81
2023/11/07 00:18:27;;;;;;;5.65;2.20;;;;;;;7.99;84.25;98010.44;5087099;28;20036;-81
2023/11/07 00:20:55;;;;;;;3.90;1.88;;;;;;;8.03;83.73;98018.69;5066716;28;20043;-81
2023/11/07 00:23:22;;;;;;;8.60;2.42;;;;;;;7.94;84.58;98014.88;5085375;28;20116;-81
2023/11/07 00:25:47;;;;;;;2.47;1.77;;;;;;;8.05;83.82;98008.59;5064475;28;21301;-80
2023/11/07 00:28:12;;;;;;;3.35;2.10;;;;;;;8.06;83.71;98012.88;5083423;28;20091;-81
2023/11/07 00:30:38;;;;;;;5.15;1.77;;;;;;;8.04;84.00;98022.94;5072305;28;20190;-81
2023/11/07 00:33:04;;;;;;;12.25;2.15;;;;;;;8.06;84.18;98024.28;5058577;28;20068;-81
2023/11/07 00:35:29;;;;;;;5.88;2.00;;;;;;;7.97;84.35;98011.72;5078449;28;20028;-81
2023/11/07 00:37:56;;;;;;;4.35;2.22;;;;;;;7.99;84.54;98017.59;5078030;28;20082;-82
2023/11/07 00:40:22;;;;;;;3.85;2.00;;;;;;;7.96;84.09;98021.53;5048990;28;20028;-81
2023/11/07 00:42:47;;;;;;;4.43;1.77;;;;;;;7.97;85.00;98025.78;5076801;28;20553;-81
2023/11/07 00:45:13;;;;;;;6.05;2.65;;;;;;;7.96;84.51;98023.41;5084134;28;20039;-81
2023/11/07 00:47:38;;;;;;;3.25;1.55;;;;;;;7.93;84.32;98019.38;5083104;28;20380;-81
2023/11/07 00:50:05;;;;;;;4.07;1.98;;;;;;;7.97;84.17;98020.47;5084337;28;20088;-81
2023/11/07 00:52:30;;;;;;;3.33;2.15;;;;;;;7.96;84.88;98018.88;5079300;28;20169;-81
2023/11/07 00:54:56;;;;;;;5.60;3.35;;;;;;;7.96;84.17;98036.69;5052954;28;20492;-81
2023/11/07 00:57:21;;;;;;;4.72;2.10;;;;;;;8.01;84.38;98034.09;5078878;28;20055;-81
2023/11/07 00:59:47;;;;;;;5.65;1.90;;;;;;;7.93;84.56;98029.22;5065033;28;20036;-81
2023/11/07 01:02:12;;;;;;;3.58;1.88;;;;;;;8.04;84.53;98037.03;5062732;28;20082;-81
2023/11/07 01:04:38;;;;;;;4.30;2.47;;;;;;;7.85;85.12;98033.13;5084300;28;20032;-81
2023/11/07 01:07:03;;;;;;;8.65;1.98;;;;;;;7.93;84.79;98029.22;5078961;28;20105;-81
2023/11/07 01:09:29;;;;;;;7.28;1.95;;;;;;;7.89;84.47;98038.72;5063231;28;20432;-81
2023/11/07 01:11:54;;;;;;;6.00;1.98;;;;;;;8.06;83.84;98044.78;5075075;28;20081;-81
2023/11/07 01:14:19;;;;;;;4.28;2.55;;;;;;;7.99;84.25;98044.16;5071595;28;20085;-81
2023/11/07 01:16:45;;;;;;;7.15;2.45;;;;;;;7.95;84.41;98051.03;5064806;28;20495;-82
2023/11/07 01:19:10;;;;;;;5.95;2.03;;;;;;;7.93;84.48;98039.84;5075532;28;20837;-81
2023/11/07 01:21:36;;;;;;;2.50;1.73;;;;;;;7.98;84.39;98051.31;5050563;28;20063;-81
2023/11/07 01:24:03;;;;;;;6.10;1.90;;;;;;;7.98;84.54;98050.50;5088042;28;20043;-81
2023/11/07 01:26:28;;;;;;;6.72;1.65;;;;;;;7.90;85.08;98050.97;5082048;28;20428;-81
2023/11/07 01:28:53;;;;;;;3.90;1.63;;;;;;;7.95;85.03;98051.81;5068694;28;20107;-81
2023/11/07 01:31:19;;;;;;;4.82;1.85;;;;;;;7.97;84.21;98056.91;5061962;28;20033;-81
2023/11/07 01:33:44;;;;;;;2.03;1.40;;;;;;;7.93;84.98;98053.91;5074042;28;20028;-82
2023/11/07 01:36:10;;;;;;;4.50;2.13;;;;;;;7.92;84.67;98064.81;5077203;28;20028;-82
2023/11/07 01:38:36;;;;;;;4.80;1.95;;;;;;;7.92;85.16;98059.50;5076377;28;20020;-82
2023/11/07 01:41:01;;;;;;;2.83;1.73;;;;;;;7.92;85.00;98054.19;5074749;28;20032;-81
2023/11/07 01:43:28;;;;;;;5.60;1.63;;;;;;;7.84;85.43;98066.03;5097715;28;20038;-81
2023/11/07 01:45:59;;;;;;;4.20;2.05;;;;;;;7.86;84.67;98049.88;5090543;28;20035;-81
2023/11/07 01:48:25;;;;;;;6.10;1.73;;;;;;;7.91;84.70;98064.00;5076978;28;20043;-81
2023/11/07 01:50:51;;;;;;;5.25;1.60;;;;;;;7.89;84.32;98057.31;5082290;28;20085;-81
2023/11/07 01:53:18;;;;;;;3.28;1.65;;;;;;;7.86;84.91;98056.00;5085586;28;20119;-82
2023/11/07 01:55:44;;;;;;;3.38;2.00;;;;;;;7.94;84.22;98062.69;5070340;28;20036;-82
2023/11/07 01:58:10;;;;;;;4.88;2.10;;;;;;;7.88;84.81;98051.25;5078151;28;20086;-82
2023/11/07 02:00:37;;;;;;;4.78;1.67;;;;;;;8.02;83.63;98070.22;5083470;28;20020;-81
2023/11/07 02:03:03;;;;;;;7.13;1.75;;;;;;;7.98;83.77;98069.91;5083643;28;20031;-81
2023/11/07 02:05:29;;;;;;;2.05;1.77;;;;;;;7.84;84.59;98059.94;5084866;28;20319;-81
2023/11/07 02:07:54;;;;;;;3.90;1.88;;;;;;;7.90;84.16;98058.94;5084323;28;20491;-81
2023/11/07 02:10:20;;;;;;;5.55;2.05;;;;;;;7.81;84.47;98066.56;5078717;28;20036;-81
2023/11/07 02:12:46;;;;;;;4.65;1.98;;;;;;;7.81;84.57;98049.81;5079306;28;20036;-81
2023/11/07 02:15:22;;;;;;;4.30;1.80;;;;;;;7.90;84.84;98067.72;5079749;28;20024;-81
2023/11/07 02:17:49;;;;;;;7.15;1.75;;;;;;;7.81;85.53;98065.75;5077842;28;20050;-81
2023/11/07 02:20:15;;;;;;;5.25;1.70;;;;;;;7.76;84.95;98066.50;5082913;28;20020;-81
2023/11/07 02:22:42;;;;;;;7.60;1.88;;;;;;;7.80;85.44;98072.91;5078721;28;20061;-81
2023/11/07 02:25:18;;;;;;;4.43;1.77;;;;;;;7.87;84.64;98070.06;5066631;28;20028;-81
2023/11/07 02:27:44;;;;;;;6.03;1.77;;;;;;;7.93;84.67;98077.06;5079049;28;20517;-81
2023/11/07 02:30:12;;;;;;;5.85;2.35;;;;;;;7.88;84.46;98072.50;5086081;28;20031;-81
2023/11/07 02:32:41;;;;;;;2.90;1.60;;;;;;;7.88;85.14;98071.69;5083687;28;20028;-81
2023/11/07 02:35:08;;;;;;;5.22;2.20;;;;;;;7.74;85.57;98063.28;5071016;28;20035;-81
2023/11/07 02:37:34;;;;;;;3.20;1.80;;;;;;;7.77;85.31;98065.47;5086254;28;20028;-81
2023/11/07 02:40:00;;;;;;;5.07;2.03;;;;;;;7.83;85.55;98084.91;5078902;28;20089;-81
2023/11/07 02:42:29;;;;;;;3.13;2.13;;;;;;;7.80;84.72;98078.22;5075447;28;20026;-81
2023/11/07 02:44:58;;;;;;;5.80;2.28;;;;;;;7.82;84.79;98070.81;5084688;28;20085;-81
2023/11/07 02:47:24;;;;;;;6.28;2.10;;;;;;;7.90;85.62;98069.56;5078271;28;20030;-81
2023/11/07 02:49:50;;;;;;;3.55;2.30;;;;;;;7.86;85.91;98077.25;5078367;28;20036;-81
2023/11/07 02:52:16;;;;;;;6.10;2.00;;;;;;;7.95;84.92;98074.94;5078609;28;20024;-81
2023/11/07 02:54:41;;;;;;;3.85;2.08;;;;;;;7.96;85.13;98071.22;5085967;28;20069;-81
2023/11/07 02:57:07;;;;;;;4.30;2.10;;;;;;;7.93;86.22;98072.53;5070833;28;20027;-81
2023/11/07 02:59:32;;;;;;;4.95;2.20;;;;;;;7.97;85.19;98072.84;5080006;28;20024;-81
2023/11/07 03:01:58;;;;;;;6.40;2.40;;;;;;;8.00;85.19;98086.41;5081031;28;20032;-81
2023/11/07 03:04:24;;;;;;;3.47;2.05;;;;;;;7.93;85.10;98064.56;5072382;28;20024;-81
2023/11/07 03:06:49;;;;;;;7.40;2.13;;;;;;;7.94;85.69;98076.78;5078297;28;20035;-81
2023/11/07 03:09:15;;;;;;;6.47;1.80;;;;;;;8.01;85.50;98073.94;5080633;28;20109;-81
2023/11/07 03:11:40;;;;;;;7.78;2.03;;;;;;;8.01;85.48;98064.13;5053976;28;20078;-81
2023/11/07 03:14:06;;;;;;;3.95;1.98;;;;;;;8.04;85.68;98068.09;5067545;28;20395;-81
2023/11/07 03:16:33;;;;;;;6.68;2.10;;;;;;;8.11;86.10;98074.03;5078597;28;20107;-81
2023/11/07 03:18:59;;;;;;;4.40;2.60;;;;;;;8.08;85.23;98074.56;5075062;28;20033;-81
2023/11/07 03:21:25;;;;;;;4.95;1.85;;;;;;;8.08;86.00;98074.56;5079108;28;20035;-81
2023/11/07 03:23:50;;;;;;;7.85;2.53;;;;;;;8.04;85.85;98073.41;5066850;28;20498;-81
2023/11/07 03:26:16;;;;;;;4.38;1.83;;;;;;;8.02;85.85;98076.34;5086431;28;20055;-81
2023/11/07 03:28:41;;;;;;;2.65;1.98;;;;;;;8.12;85.39;98086.28;5070048;28;20113;-81
2023/11/07 03:31:06;;;;;;;3.97;2.05;;;;;;;8.03;86.30;98088.59;5069592;28;20036;-81
2023/11/07 03:33:32;;;;;;;5.93;1.90;;;;;;;8.09;85.32;98092.09;5077581;28;20032;-81
2023/11/07 03:35:58;;;;;;;4.47;2.10;;;;;;;8.17;85.05;98091.63;5090200;28;20511;-81
2023/11/07 03:38:23;;;;;;;3.50;1.77;;;;;;;8.12;86.15;98094.25;5083544;28;20040;-81
2023/11/07 03:40:49;;;;;;;5.78;2.38;;;;;;;8.08;85.33;98085.19;5078619;28;20024;-81
2023/11/07 03:43:15;;;;;;;4.00;1.90;;;;;;;8.14;85.50;98095.59;5079294;28;20027;-81
2023/11/07 03:45:41;;;;;;;3.83;2.10;;;;;;;8.11;85.44;98088.13;5078447;28;20043;-82
2023/11/07 03:48:06;;;;;;;2.42;2.10;;;;;;;8.14;85.65;98084.97;5069203;28;20392;-81
2023/11/07 03:50:32;;;;;;;3.00;1.70;;;;;;;8.14;86.01;98092.13;5087126;28;20024;-81
2023/11/07 03:52:57;;;;;;;2.55;1.75;;;;;;;8.15;85.35;98091.06;5070349;28;20032;-81
2023/11/07 03:55:23;;;;;;;2.83;1.67;;;;;;;8.23;85.43;98102.06;5049220;28;20032;-81
2023/11/07 03:57:48;;;;;;;3.90;2.08;;;;;;;8.19;85.27;98102.84;5089416;28;20066;-81
2023/11/07 04:00:14;;;;;;;4.50;1.95;;;;;;;8.18;85.66;98091.38;5081957;28;20025;-81
2023/11/07 04:02:39;;;;;;;3.10;1.75;;;;;;;8.22;85.66;98100.47;5081931;28;20043;-81
2023/11/07 04:05:05;;;;;;;1.98;1.83;;;;;;;8.21;85.31;98095.41;5080881;28;20488;-81
2023/11/07 04:07:30;;;;;;;6.47;2.10;;;;;;;8.17;85.99;98088.97;5084335;28;20134;-81
2023/11/07 04:09:56;;;;;;;2.45;2.03;;;;;;;8.24;85.59;98095.69;5081269;28;20344;-81
2023/11/07 04:12:22;;;;;;;5.53;1.92;;;;;;;8.17;85.60;98083.66;5069494;28;20028;-81
2023/11/07 04:14:48;;;;;;;3.38;2.00;;;;;;;8.15;85.92;98096.38;5075632;28;20040;-81
2023/11/07 04:17:15;;;;;;;5.93;2.22;;;;;;;8.18;85.69;98095.91;5082955;28;20367;-81
2023/11/07 04:19:41;;;;;;;5.63;2.20;;;;;;;8.16;86.28;98090.03;5055088;28;20078;-81
2023/11/07 04:22:07;;;;;;;4.78;2.58;;;;;;;8.19;86.11;98108.94;5086413;28;20024;-81
2023/11/07 04:24:35;;;;;;;8.32;2.38;;;;;;;8.21;85.27;98090.09;5070939;28;20098;-81
2023/11/07 04:27:01;;;;;;;3.25;2.40;;;;;;;8.09;86.03;98076.94;5081426;28;20032;-81
2023/11/07 04:29:26;;;;;;;6.38;2.70;;;;;;;8.14;85.71;98089.47;5065173;28;20515;-81
2023/11/07 04:31:51;;;;;;;3.20;2.13;;;;;;;8.08;86.02;98087.84;5088935;28;20062;-81
2023/11/07 04:34:17;;;;;;;5.72;2.22;;;;;;;8.11;85.86;98079.34;5054130;28;20029;-81
2023/11/07 04:36:45;;;;;;;5.78;2.50;;;;;;;8.22;85.72;98089.84;5068812;28;20032;-81
2023/11/07 04:39:10;;;;;;;5.07;2.53;;;;;;;8.23;85.31;98107.38;5080590;28;20028;-81
2023/11/07 04:41:36;;;;;;;5.53;2.65;;;;;;;8.19;86.21;98102.84;5078750;28;20043;-81
2023/11/07 04:44:02;;;;;;;6.15;2.63;;;;;;;8.15;85.46;98107.81;5089178;28;20028;-81
2023/11/07 04:46:28;;;;;;;7.32;2.25;;;;;;;8.10;85.66;98110.44;5068914;28;20123;-81
2023/11/07 04:48:54;;;;;;;3.58;1.70;;;;;;;8.23;85.42;98115.34;5083179;28;20131;-81
2023/11/07 04:51:20;;;;;;;2.15;1.95;;;;;;;8.26;85.16;98106.09;5068874;28;20514;-81
2023/11/07 04:53:47;;;;;;;5.72;2.30;;;;;;;8.15;85.17;98099.03;5075657;28;20059;-82
2023/11/07 04:56:13;;;;;;;3.17;2.53;;;;;;;8.21;85.65;98106.03;5072884;28;20410;-81
2023/11/07 04:58:39;;;;;;;3.90;2.47;;;;;;;8.19;85.50;98103.59;5074363;28;20039;-81
2023/11/07 05:01:07;;;;;;;4.93;2.22;;;;;;;8.14;84.86;98092.13;5061111;28;20525;-81
2023/11/07 05:03:32;;;;;;;4.85;2.15;;;;;;;8.21;85.63;98101.50;5081047;28;20036;-82
2023/11/07 05:05:58;;;;;;;5.97;2.97;;;;;;;7.96;85.41;98095.13;5082261;28;20499;-81
2023/11/07 05:08:23;;;;;;;2.72;1.90;;;;;;;8.01;85.53;98092.53;5072522;28;20036;-81
2023/11/07 05:10:49;;;;;;;3.13;2.30;;;;;;;8.16;84.93;98109.44;5081789;28;20040;-81
2023/11/07 05:13:14;;;;;;;2.20;2.00;;;;;;;8.03;85.42;98090.44;5073340;28;20033;-81
2023/11/07 05:15:42;;;;;;;8.57;2.67;;;;;;;8.12;84.78;98104.88;5078400;28;20471;-81
2023/11/07 05:18:11;;;;;;;2.13;1.88;;;;;;;8.09;85.55;98092.88;5077317;28;20019;-82
2023/11/07 05:20:38;;;;;;;4.88;2.50;;;;;;;8.12;85.26;98103.03;5047976;28;20020;-81
2023/11/07 05:23:04;;;;;;;5.22;2.20;;;;;;;8.06;85.99;98096.03;5072341;28;20058;-81
2023/11/07 05:25:30;;;;;;;4.68;2.30;;;;;;;8.09;86.17;98102.72;5072972;28;20047;-81
2023/11/07 05:27:55;;;;;;;4.03;2.72;;;;;;;8.11;85.74;98105.91;5080025;28;20032;-81
2023/11/07 05:30:20;;;;;;;3.60;2.10;;;;;;;8.18;85.55;98112.66;5080285;28;20032;-82
2023/11/07 05:32:47;;;;;;;6.20;2.60;;;;;;;8.01;85.69;98098.66;5083828;28;20392;-81
2023/11/07 05:35:16;;;;;;;5.18;2.53;;;;;;;7.97;85.74;98099.41;5067596;28;20138;-81
2023/11/07 05:37:44;;;;;;;4.30;2.22;;;;;;;7.93;85.87;98100.97;5077237;28;20076;-81
2023/11/07 05:40:13;;;;;;;6.80;2.00;;;;;;;7.94;86.11;98102.56;5075767;28;20027;-81
2023/11/07 05:42:42;;;;;;;4.93;2.70;;;;;;;8.02;86.55;98115.38;5081940;28;20411;-83
2023/11/07 05:45:08;;;;;;;6.18;2.75;;;;;;;7.96;86.02;98119.03;5065474;28;20396;-81
2023/11/07 05:47:35;;;;;;;4.93;2.58;;;;;;;7.90;85.80;98094.28;5078868;28;20024;-82
2023/11/07 05:50:01;;;;;;;4.63;2.22;;;;;;;7.90;85.68;98126.19;5078960;28;20107;-82
2023/11/07 05:52:27;;;;;;;6.28;2.72;;;;;;;7.87;85.79;98110.72;5078093;28;20032;-82
2023/11/07 05:54:52;;;;;;;5.93;3.72;;;;;;;7.88;85.83;98112.34;5062561;28;20089;-82
2023/11/07 05:57:19;;;;;;;7.85;2.75;;;;;;;7.97;85.63;98128.63;5076370;28;20512;-82
2023/11/07 05:59:44;;;;;;;6.03;2.53;;;;;;;8.01;85.95;98122.56;5083450;28;20036;-81
2023/11/07 06:02:10;;;;;;;6.18;3.35;;;;;;;7.89;85.49;98129.88;5089845;28;20517;-82
2023/11/07 06:04:36;;;;;;;6.18;2.60;;;;;;;7.99;85.19;98123.88;5084985;28;20040;-81
2023/11/07 06:07:02;;;;;;;6.30;2.58;;;;;;;7.70;85.81;98117.16;5086635;28;20491;-82
2023/11/07 06:09:28;;;;;;;8.57;2.75;;;;;;;7.88;85.61;98127.47;5089828;28;20020;-82
2023/11/07 06:11:55;;;;;;;9.38;2.55;;;;;;;7.86;85.35;98126.91;5082803;28;20054;-82
2023/11/07 06:14:21;;;;;;;5.03;2.40;;;;;;;7.81;85.94;98122.34;5076876;28;20032;-82
2023/11/07 06:16:46;;;;;;;3.92;2.35;;;;;;;7.90;85.41;98136.00;5082070;28;20038;-82
2023/11/07 06:19:11;;;;;;;7.75;2.67;;;;;;;7.80;85.16;98130.56;5086212;28;20036;-82
2023/11/07 06:21:37;;;;;;;5.63;1.95;;;;;;;7.82;86.00;98128.47;5091509;28;20403;-82
2023/11/07 06:24:04;;;;;;;3.63;2.42;;;;;;;7.77;85.57;98134.53;5080218;28;20036;-82
2023/11/07 06:26:29;;;;;;;4.10;2.30;;;;;;;7.83;85.42;98146.00;5077712;28;20090;-82
2023/11/07 06:28:55;;;;;;;4.35;2.25;;;;;;;7.72;85.42;98141.63;5083342;28;20426;-82
2023/11/07 06:31:27;;;;;;;6.85;2.42;;;;;;;7.63;86.28;98137.78;5079524;28;20020;-82
2023/11/07 06:33:53;;;;;;;2.53;2.33;;;;;;;7.61;86.19;98139.88;5082744;28;20024;-82
2023/11/07 06:36:19;;;;;;;3.50;2.17;;;;;;;7.66;85.78;98153.22;5091618;28;20020;-82
2023/11/07 06:38:45;;;;;;;5.47;2.70;;;;;;;7.82;85.90;98157.69;5091480;28;20035;-82
2023/11/07 06:41:11;;;;;;;5.97;2.38;;;;;;;7.81;85.78;98156.06;5084155;28;20029;-82
2023/11/07 06:43:38;;;;;;;4.97;2.42;;;;;;;7.74;85.59;98153.59;5083206;28;20024;-82
2023/11/07 06:46:03;;;;;;;7.10;3.00;;;;;;;7.80;85.71;98157.91;5072167;28;20376;-82
2023/11/07 06:48:29;;;;;;;3.30;2.10;;;;;;;7.82;85.46;98155.81;5086327;28;20233;-81
2023/11/07 06:50:56;;;;;;;2.88;2.53;;;;;;;7.82;85.96;98155.81;5075845;28;20020;-82
2023/11/07 06:53:21;;;;;;;4.57;2.40;;;;;;;7.83;85.27;98154.78;5072325;28;20074;-82
2023/11/07 06:55:47;;;;;;;5.45;3.67;;;;;;;7.80;85.20;98152.59;5083054;28;20648;-81
2023/11/07 06:58:12;;;;;;;6.90;3.05;;;;;;;7.83;85.79;98159.28;5083103;28;20037;-83
2023/11/07 07:00:40;;;;;;;6.13;2.90;;;;;;;7.81;85.44;98156.88;5073245;28;20055;-81
2023/11/07 07:03:06;;;;;;;5.28;2.80;;;;;;;7.88;85.72;98170.78;5072758;28;20061;-82
2023/11/07 07:05:32;;;;;;;4.95;2.70;;;;;;;7.86;85.47;98172.09;5077346;28;20020;-82
2023/11/07 07:07:57;;;;;;;4.15;2.20;;;;;;;7.84;85.47;98180.28;5071173;28;20039;-82
2023/11/07 07:10:23;;;;;;;3.30;2.20;;;;;;;7.84;85.56;98169.66;5060049;28;20043;-82
2023/11/07 07:12:48;;;;;;;2.50;1.92;;;;;;;7.90;85.62;98181.16;5083335;28;20376;-81
2023/11/07 07:15:14;;;;;;;5.75;2.65;;;;;;;7.76;85.72;98174.59;5087230;28;20498;-81
2023/11/07 07:17:40;;;;;;;9.23;2.58;;;;;;;7.80;85.35;98173.84;5078843;28;20135;-82
2023/11/07 07:20:11;;;;;;;6.28;2.88;;;;;;;7.81;86.46;98180.78;5078937;28;20016;-82
2023/11/07 07:22:41;;;;;;;5.68;2.53;;;;;;;7.87;85.73;98190.44;5086547;28;20031;-82
2023/11/07 07:25:15;;;;;;;11.88;2.88;;;;;;;7.86;84.94;98177.41;5087163;28;20022;-82
2023/11/07 07:27:47;;;;;;;19.42;3.00;;;;;;;7.75;85.22;98170.34;5062918;28;20114;-82
2023/11/07 07:30:20;;;;;;;2.88;1.90;;;;;;;7.77;84.93;98173.56;5074018;28;20031;-81
2023/11/07 07:32:49;;;;;;;3.20;2.15;;;;;;;7.80;85.08;98178.38;5089429;28;20169;-81
2023/11/07 07:35:15;;;;;;;7.57;2.50;;;;;;;7.81;84.88;98170.16;5086489;28;20039;-81
2023/11/07 07:37:42;;;;;;;4.90;2.78;;;;;;;7.87;84.93;98178.97;5080628;28;20040;-81
2023/11/07 07:40:10;;;;;;;6.95;2.92;;;;;;;7.88;85.35;98175.28;5049772;28;20020;-81
2023/11/07 07:42:35;;;;;;;5.47;2.60;;;;;;;7.87;85.16;98182.44;5076223;28;20115;-81
2023/11/07 07:45:07;;;;;;;2.45;2.08;;;;;;;7.84;85.67;98180.28;5078746;28;20162;-81
2023/11/07 07:47:35;;;;;;;2.75;2.13;;;;;;;7.86;85.51;98178.22;5089204;28;21752;-81
2023/11/07 07:50:00;;;;;;;2.42;1.98;;;;;;;7.80;85.20;98176.50;5100281;28;20372;-82
2023/11/07 07:52:29;;;;;;;3.75;2.28;;;;;;;7.89;84.76;98184.84;5083699;28;20035;-81
2023/11/07 07:54:56;;;;;;;8.68;2.33;;;;;;;7.79;85.32;98171.47;5075754;28;20034;-81
2023/11/07 07:57:22;;;;;;;5.63;2.30;;;;;;;7.84;85.50;98184.81;5072535;28;20471;-81
2023/11/07 07:59:47;;;;;;;2.63;1.92;;;;;;;7.80;85.18;98181.03;5089763;28;20036;-82
2023/11/07 08:02:13;;;;;;;3.28;2.22;;;;;;;7.83;85.30;98186.66;5057455;28;20030;-81
2023/11/07 08:04:38;;;;;;;5.03;2.30;;;;;;;7.95;84.80;98197.94;5092723;28;20043;-81
2023/11/07 08:07:05;;;;;;;9.05;2.00;;;;;;;7.95;85.44;98191.84;5087832;28;20067;-81
2023/11/07 08:09:30;;;;;;;6.55;1.95;;;;;;;7.86;85.41;98196.00;5090445;28;20032;-81
2023/11/07 08:12:00;;;;;;;5.30;2.17;;;;;;;7.94;85.06;98201.69;5062210;28;20082;-81
2023/11/07 08:14:26;;;;;;;3.85;2.10;;;;;;;7.98;85.01;98194.81;5086083;28;20050;-81
2023/11/07 08:16:52;;;;;;;6.03;2.63;;;;;;;7.86;85.27;98188.03;5091540;28;20438;-82
2023/11/07 08:19:20;;;;;;;4.07;2.30;;;;;;;8.02;84.72;98198.56;5076966;28;20035;-81
2023/11/07 08:21:45;;;;;;;2.95;2.10;;;;;;;8.04;84.83;98195.66;5093080;28;20475;-81
2023/11/07 08:24:13;;;;;;;5.82;1.90;;;;;;;8.08;84.66;98205.56;5080970;28;20077;-81
2023/11/07 08:26:38;;;;;;;4.63;2.33;;;;;;;8.17;84.79;98211.22;5082257;28;20024;-81
2023/11/07 08:29:06;;;;;;;2.45;1.90;;;;;;;8.16;84.19;98199.81;5085523;28;20073;-81
2023/11/07 08:31:38;;;;;;;2.13;1.67;;;;;;;8.08;85.38;98194.91;5079861;28;20024;-81
2023/11/07 08:34:09;;;;;;;4.72;2.10;;;;;;;8.15;84.45;98214.16;5084905;28;20046;-81
2023/11/07 08:36:34;;;;;;;5.13;2.00;;;;;;;8.17;84.99;98211.22;5057419;28;20024;-81
2023/11/07 08:39:00;;;;;;;7.18;2.50;;;;;;;8.21;84.41;98204.41;5056429;28;20115;-81
2023/11/07 08:41:25;;;;;;;7.18;2.35;;;;;;;8.16;84.87;98206.97;5088969;28;20016;-81
2023/11/07 08:43:51;;;;;;;5.80;2.00;;;;;;;8.14;84.67;98201.13;5087730;28;20059;-81
2023/11/07 08:46:20;;;;;;;4.80;1.88;;;;;;;8.25;85.15;98213.47;5090145;28;20057;-81
2023/11/07 08:48:46;;;;;;;2.30;2.08;;;;;;;8.20;84.34;98200.94;5085886;28;20032;-81
2023/11/07 08:51:14;;;;;;;3.20;2.22;;;;;;;8.18;84.51;98215.50;5074009;28;20473;-81
2023/11/07 08:53:42;;;;;;;2.95;1.88;;;;;;;8.24;84.85;98217.97;5074858;28;20032;-81
2023/11/07 08:56:08;;;;;;;3.55;2.22;;;;;;;8.19;84.54;98223.22;5092879;28;20521;-81
2023/11/07 08:58:34;;;;;;;4.85;2.30;;;;;;;8.27;84.62;98214.88;5094638;28;20028;-81
2023/11/07 09:01:01;;;;;;;3.20;2.03;;;;;;;8.13;84.49;98212.78;5084103;28;20100;-81
2023/11/07 09:03:27;;;;;;;3.20;2.28;;;;;;;8.22;83.96;98216.63;5084748;28;20375;-81
2023/11/07 09:05:52;;;;;;;3.20;2.03;;;;;;;8.25;84.82;98224.09;5072270;28;20025;-81
2023/11/07 09:08:18;;;;;;;3.67;2.22;;;;;;;8.30;84.88;98222.31;5079622;28;20547;-82
2023/11/07 09:10:43;;;;;;;5.05;2.65;;;;;;;8.35;85.00;98218.13;5075903;28;20020;-81
2023/11/07 09:13:10;;;;;;;4.05;2.03;;;;;;;8.40;84.72;98203.03;5093834;28;20028;-81
2023/11/07 09:15:36;;;;;;;6.32;2.00;;;;;;;8.51;84.78;98212.72;5092819;28;20043;-80
2023/11/07 09:18:02;;;;;;;5.40;2.58;;;;;;;8.54;85.08;98219.41;5090543;28;20027;-81
2023/11/07 09:20:27;;;;;;;4.00;2.03;;;;;;;8.73;84.33;98218.00;5092679;28;20479;-81
2023/11/07 09:22:53;;;;;;;3.35;1.65;;;;;;;8.66;83.91;98209.41;5091737;28;20020;-81
2023/11/07 09:25:19;;;;;;;6.30;2.53;;;;;;;8.79;83.96;98224.97;5075382;28;20463;-81
2023/11/07 09:27:47;;;;;;;3.65;2.00;;;;;;;8.76;83.88;98214.81;5075748;28;20031;-81
2023/11/07 09:30:12;;;;;;;4.80;2.45;;;;;;;8.81;83.83;98214.88;5074218;28;20359;-80
2023/11/07 09:32:39;;;;;;;2.97;2.40;;;;;;;8.87;84.00;98222.66;5088275;28;20138;-81
2023/11/07 09:35:06;;;;;;;3.08;1.83;;;;;;;8.89;82.89;98223.19;5087052;28;20077;-81
2023/11/07 09:37:31;;;;;;;4.25;2.17;;;;;;;8.80;83.58;98222.03;5083795;28;20560;-81
2023/11/07 09:39:57;;;;;;;5.47;3.60;;;;;;;8.94;82.83;98207.28;5056189;28;20115;-81
2023/11/07 09:42:22;;;;;;;1.63;1.52;;;;;;;9.03;82.81;98223.59;5073237;28;20034;-81
2023/11/07 09:44:48;;;;;;;3.22;2.33;;;;;;;9.07;82.46;98222.81;5055119;28;20032;-81
2023/11/07 09:47:14;;;;;;;2.20;1.95;;;;;;;9.05;82.95;98213.47;5070900;28;20127;-81
2023/11/07 09:49:40;;;;;;;3.55;2.03;;;;;;;9.09;82.59;98217.25;5077651;28;20507;-81
2023/11/07 09:52:06;;;;;;;2.55;1.98;;;;;;;9.05;83.01;98211.63;5093523;28;20367;-81
2023/11/07 09:54:33;;;;;;;3.22;2.00;;;;;;;9.15;82.89;98215.44;5093717;28;20028;-81
2023/11/07 09:57:06;;;;;;;3.78;2.00;;;;;;;9.20;82.17;98218.94;5092877;28;20106;-81
2023/11/07 09:59:36;;;;;;;4.82;1.95;;;;;;;9.13;82.49;98221.00;5091591;28;20513;-81
2023/11/07 10:02:07;;;;;;;2.13;1.65;;;;;;;9.18;82.95;98225.56;5087271;28;20487;-81
2023/11/07 10:04:34;;;;;;;4.57;2.53;;;;;;;9.23;82.37;98221.09;5087777;28;20468;-81
2023/11/07 10:07:00;;;;;;;1.88;1.77;;;;;;;9.24;82.14;98217.34;5074698;28;20117;-81
2023/11/07 10:09:26;;;;;;;2.85;1.90;;;;;;;9.28;81.90;98223.81;5055989;28;20032;-81
2023/11/07 10:11:53;;;;;;;2.78;2.00;;;;;;;9.34;81.59;98225.44;5091563;28;20077;-81
2023/11/07 10:14:20;;;;;;;5.40;2.40;;;;;;;9.40;81.03;98221.75;5075104;28;20533;-81
2023/11/07 10:16:50;;;;;;;3.53;1.60;;;;;;;9.37;81.40;98216.91;5089477;28;20390;-81
2023/11/07 10:19:23;;;;;;;3.75;1.63;;;;;;;9.39;81.28;98214.03;5090652;28;20024;-81
2023/11/07 10:21:49;;;;;;;3.45;1.95;;;;;;;9.36;81.43;98215.34;5091030;28;20036;-81
2023/11/07 10:24:15;;;;;;;3.67;1.77;;;;;;;9.38;80.78;98209.75;5091606;28;20546;-81
2023/11/07 10:26:55;;;;;;;5.68;1.60;;;;;;;9.34;80.49;98203.31;5091065;28;20024;-81
2023/11/07 10:29:27;;;;;;;4.00;1.70;;;;;;;9.41;81.31;98222.56;5076200;28;20085;-81
2023/11/07 10:32:05;;;;;;;2.75;1.98;;;;;;;9.44;80.77;98230.81;5072478;28;20123;-81
2023/11/07 10:34:31;;;;;;;5.38;2.03;;;;;;;9.54;80.39;98224.78;5089756;28;20115;-81
2023/11/07 10:36:59;;;;;;;4.85;2.10;;;;;;;9.48;80.99;98229.25;5092684;28;20439;-81
2023/11/07 10:39:26;;;;;;;2.25;1.65;;;;;;;9.61;80.52;98226.13;5086924;28;20042;-81
2023/11/07 10:41:55;;;;;;;2.38;1.85;;;;;;;9.68;80.03;98225.91;5090875;28;20063;-81
2023/11/07 10:44:25;;;;;;;1.88;1.65;;;;;;;9.71;80.00;98223.56;5091398;28;20107;-81
2023/11/07 10:46:52;;;;;;;3.35;2.10;;;;;;;9.63;80.52;98209.91;5087922;28;20032;-81
2023/11/07 10:49:18;;;;;;;2.80;2.00;;;;;;;9.73;79.77;98215.28;5072734;28;20024;-81
2023/11/07 10:51:44;;;;;;;3.78;1.75;;;;;;;9.72;79.82;98206.50;5069009;28;20127;-81
2023/11/07 10:54:10;;;;;;;4.70;1.95;;;;;;;9.70;79.93;98211.28;5070391;28;20024;-81
2023/11/07 10:56:40;;;;;;;4.03;2.13;;;;;;;9.74;79.70;98208.91;5070830;28;20028;-81
2023/11/07 10:59:20;;;;;;;4.72;1.90;;;;;;;9.79;79.20;98199.06;5037756;28;20032;-81
2023/11/07 11:01:50;;;;;;;2.30;1.73;;;;;;;9.86;79.13;98211.34;5070732;28;20020;-80
2023/11/07 11:04:17;;;;;;;5.03;1.52;;;;;;;9.85;79.60;98210.53;5075725;28;20053;-81
2023/11/07 11:06:52;;;;;;;3.17;1.70;;;;;;;9.87;79.58;98202.31;5092021;28;20031;-81
2023/11/07 11:09:19;;;;;;;3.08;1.65;;;;;;;9.91;78.98;98190.06;5092042;28;20083;-80
2023/11/07 11:11:48;;;;;;;3.78;1.40;;;;;;;9.89;79.13;98197.53;5090546;28;20031;-80
2023/11/07 11:14:13;;;;;;;1.75;1.60;;;;;;;9.89;79.11;98197.53;5090090;28;20367;-81
2023/11/07 11:16:41;;;;;;;1.60;1.50;;;;;;;9.97;78.95;98194.34;5073009;28;20032;-81
2023/11/07 11:19:28;;;;;;;5.88;1.52;;;;;;;9.94;78.78;98202.88;5089601;28;20372;-80
2023/11/07 11:22:02;;;;;;;1.65;1.45;;;;;;;9.96;78.91;98190.09;5091934;28;20024;-81
2023/11/07 11:24:37;;;;;;;2.05;1.70;;;;;;;10.01;79.15;98192.75;5077344;28;20035;-81
2023/11/07 11:27:11;;;;;;;3.75;1.13;;;;;;;9.98;78.77;98186.09;5091256;28;20035;-80
2023/11/07 11:29:45;;;;;;;2.03;1.73;;;;;;;10.02;78.59;98181.84;5089875;28;20027;-81
2023/11/07 11:32:29;;;;;;;2.13;1.67;;;;;;;9.99;79.55;98186.88;5090537;28;20085;-81
2023/11/07 11:35:15;;;;;;;2.15;1.40;;;;;;;10.09;79.29;98198.38;5090542;28;20055;-81
2023/11/07 11:38:12;;;;;;;3.55;1.75;;;;;;;10.21;78.41;98196.34;5086652;28;20146;-81
2023/11/07 11:40:50;;;;;;;3.42;1.42;;;;;;;10.20;78.61;98193.97;5086065;28;20039;-80